createdAt,value
2022-09-21T00:00:31.428Z,8.77
2022-09-21T00:03:05.610Z,13.52
2022-09-21T00:05:39.674Z,8.05
2022-09-21T00:08:15.196Z,5.93
2022-09-21T00:10:52.748Z,9.25
2022-09-21T00:13:27.442Z,5.30
2022-09-21T00:16:01.552Z,10.38
2022-09-21T00:18:35.638Z,7.07
2022-09-21T00:21:10.118Z,6.47
2022-09-21T00:23:44.584Z,8.85
2022-09-21T00:26:22.897Z,6.57
2022-09-21T00:28:57.991Z,11.38
2022-09-21T00:31:32.459Z,16.80
2022-09-21T00:34:07.951Z,7.85
2022-09-21T00:36:41.808Z,6.72
2022-09-21T00:39:15.355Z,8.65
2022-09-21T00:41:53.690Z,11.55
2022-09-21T00:44:31.872Z,12.10
2022-09-21T00:47:11.150Z,8.77
2022-09-21T00:49:48.779Z,6.78
2022-09-21T00:52:24.119Z,7.30
2022-09-21T00:55:01.822Z,8.23
2022-09-21T00:57:38.824Z,6.35
2022-09-21T01:00:12.854Z,6.38
2022-09-21T01:02:47.768Z,7.63
2022-09-21T01:05:21.366Z,9.88
2022-09-21T01:07:57.526Z,7.53
2022-09-21T01:10:39.776Z,9.10
2022-09-21T01:13:22.442Z,8.55
2022-09-21T01:18:37.841Z,7.32
2022-09-21T01:21:20.453Z,10.85
2022-09-21T01:24:20.038Z,5.95
2022-09-21T01:27:28.965Z,6.88
2022-09-21T01:30:07.023Z,9.07
2022-09-21T01:32:44.995Z,10.43
2022-09-21T01:35:23.179Z,11.00
2022-09-21T01:38:02.912Z,6.53
2022-09-21T01:40:41.495Z,8.70
2022-09-21T01:43:25.463Z,8.70
2022-09-21T01:46:03.526Z,8.77
2022-09-21T01:48:41.271Z,10.02
2022-09-21T01:51:18.314Z,11.52
2022-09-21T01:53:56.402Z,14.98
2022-09-21T01:56:35.906Z,10.30
2022-09-21T01:59:16.072Z,11.48
2022-09-21T02:01:55.002Z,10.63
2022-09-21T02:04:29.246Z,10.90
2022-09-21T02:07:03.261Z,12.25
2022-09-21T02:09:38.452Z,11.45
2022-09-21T02:12:15.663Z,11.60
2022-09-21T02:14:55.703Z,10.70
2022-09-21T02:17:38.516Z,11.43
2022-09-21T02:20:21.210Z,11.45
2022-09-21T02:23:03.976Z,9.98
2022-09-21T02:25:48.340Z,10.35
2022-09-21T02:28:33.005Z,10.55
2022-09-21T02:31:14.363Z,8.38
2022-09-21T02:33:58.757Z,9.27
2022-09-21T02:36:35.775Z,9.43
2022-09-21T02:39:16.342Z,9.73
2022-09-21T02:42:02.065Z,9.88
2022-09-21T02:44:41.106Z,10.30
2022-09-21T02:47:18.539Z,11.88
2022-09-21T02:49:57.436Z,14.07
2022-09-21T02:52:32.868Z,10.60
2022-09-21T02:55:08.184Z,12.18
2022-09-21T02:57:42.868Z,12.38
2022-09-21T03:00:17.587Z,8.27
2022-09-21T03:02:51.087Z,9.02
2022-09-21T03:05:26.561Z,9.63
2022-09-21T03:08:00.032Z,11.93
2022-09-21T03:10:33.759Z,10.85
2022-09-21T03:13:09.137Z,10.27
2022-09-21T03:15:44.009Z,10.82
2022-09-21T03:18:17.644Z,10.95
2022-09-21T03:20:52.772Z,11.32
2022-09-21T03:23:26.812Z,11.63
2022-09-21T03:26:00.375Z,11.43
2022-09-21T03:28:33.864Z,7.82
2022-09-21T03:31:08.013Z,7.85
2022-09-21T03:33:41.608Z,10.30
2022-09-21T03:36:16.622Z,9.00
2022-09-21T03:38:50.131Z,8.32
2022-09-21T03:41:23.785Z,9.75
2022-09-21T03:43:57.323Z,8.02
2022-09-21T03:46:31.084Z,13.18
2022-09-21T03:49:04.673Z,8.35
2022-09-21T03:51:40.717Z,11.90
2022-09-21T03:54:14.487Z,8.88
2022-09-21T03:56:48.160Z,9.10
2022-09-21T03:59:21.759Z,8.57
2022-09-21T04:01:55.582Z,8.02
2022-09-21T04:04:29.114Z,12.90
2022-09-21T04:07:04.487Z,11.45
2022-09-21T04:09:38.018Z,8.60
2022-09-21T04:12:12.004Z,9.68
2022-09-21T04:14:45.524Z,21.17
2022-09-21T04:17:19.383Z,9.77
2022-09-21T04:19:52.906Z,12.52
2022-09-21T04:22:27.970Z,12.25
2022-09-21T04:25:01.595Z,14.68
2022-09-21T04:27:35.790Z,14.95
2022-09-21T04:30:11.415Z,12.95
2022-09-21T04:32:45.487Z,11.23
2022-09-21T04:35:19.099Z,13.07
2022-09-21T04:37:56.351Z,20.33
2022-09-21T04:40:29.916Z,13.88
2022-09-21T04:43:03.765Z,9.60
2022-09-21T04:45:37.247Z,13.20
2022-09-21T04:48:10.800Z,13.13
2022-09-21T04:50:44.363Z,19.30
2022-09-21T04:53:19.265Z,15.48
2022-09-21T04:55:52.952Z,13.10
2022-09-21T04:58:26.541Z,14.77
2022-09-21T05:01:00.218Z,20.52
2022-09-21T05:03:33.905Z,17.95
2022-09-21T05:06:09.601Z,18.27
2022-09-21T05:09:01.908Z,17.98
2022-09-21T05:11:35.385Z,13.75
2022-09-21T05:14:09.283Z,16.75
2022-09-21T05:16:42.904Z,11.60
2022-09-21T05:19:16.484Z,11.00
2022-09-21T05:21:50.021Z,13.35
2022-09-21T05:24:24.988Z,12.43
2022-09-21T05:26:58.512Z,12.70
2022-09-21T05:29:32.538Z,10.38
2022-09-21T05:32:11.466Z,11.50
2022-09-21T05:34:55.848Z,12.30
2022-09-21T05:37:48.283Z,21.98
2022-09-21T05:40:24.127Z,9.60
2022-09-21T05:42:58.273Z,8.02
2022-09-21T05:45:32.614Z,7.30
2022-09-21T05:48:16.210Z,7.72
2022-09-21T05:50:56.846Z,8.38
2022-09-21T05:53:47.500Z,11.68
2022-09-21T05:56:39.798Z,8.68
2022-09-21T05:59:34.080Z,8.88
2022-09-21T06:02:18.755Z,11.68
2022-09-21T06:04:54.242Z,10.00
2022-09-21T06:07:27.875Z,8.55
2022-09-21T06:10:01.399Z,10.20
2022-09-21T06:12:36.598Z,11.18
2022-09-21T06:15:13.815Z,8.70
2022-09-21T06:17:47.492Z,10.88
2022-09-21T06:20:20.984Z,9.10
2022-09-21T06:22:54.775Z,9.70
2022-09-21T06:25:28.357Z,7.88
2022-09-21T06:28:06.081Z,11.85
2022-09-21T06:30:42.333Z,10.38
2022-09-21T06:33:20.859Z,10.25
2022-09-21T06:35:55.615Z,9.15
2022-09-21T06:38:29.767Z,9.13
2022-09-21T06:41:03.955Z,8.35
2022-09-21T06:43:38.960Z,11.10
2022-09-21T06:46:12.432Z,6.65
2022-09-21T06:48:46.258Z,7.43
2022-09-21T06:51:21.665Z,8.10
2022-09-21T06:53:56.833Z,8.30
2022-09-21T06:56:30.348Z,15.18
2022-09-21T06:59:05.396Z,10.32
2022-09-21T07:01:39.256Z,11.52
2022-09-21T07:04:12.930Z,11.85
2022-09-21T07:06:46.629Z,9.32
2022-09-21T07:12:16.277Z,7.60
2022-09-21T07:14:51.383Z,11.80
2022-09-21T07:17:24.963Z,7.13
2022-09-21T07:19:58.517Z,9.15
2022-09-21T07:22:32.586Z,9.05
2022-09-21T07:25:07.597Z,7.72
2022-09-21T07:27:41.743Z,9.73
2022-09-21T07:30:16.805Z,11.55
2022-09-21T07:32:50.344Z,9.02
2022-09-21T07:35:23.834Z,13.20
2022-09-21T07:37:59.659Z,8.63
2022-09-21T07:40:33.568Z,7.50
2022-09-21T07:43:07.216Z,7.90
2022-09-21T07:45:42.164Z,10.02
2022-09-21T07:48:15.732Z,8.48
2022-09-21T07:50:49.293Z,10.02
2022-09-21T07:53:22.747Z,5.57
2022-09-21T07:56:02.766Z,7.70
2022-09-21T07:58:54.942Z,9.52
2022-09-21T08:01:31.061Z,10.30
2022-09-21T08:04:05.692Z,9.70
2022-09-21T08:06:41.139Z,7.47
2022-09-21T08:09:14.744Z,7.60
2022-09-21T08:11:48.326Z,12.02
2022-09-21T08:14:26.087Z,8.40
2022-09-21T08:17:01.796Z,7.55
2022-09-21T08:19:36.165Z,8.32
2022-09-21T08:22:09.685Z,11.32
2022-09-21T08:24:44.539Z,10.95
2022-09-21T08:27:19.830Z,5.82
2022-09-21T08:29:53.328Z,13.00
2022-09-21T08:32:49.944Z,8.55
2022-09-21T08:35:21.717Z,11.20
2022-09-21T08:37:55.623Z,9.68
2022-09-21T08:40:29.406Z,13.63
2022-09-21T08:43:08.914Z,8.50
2022-09-21T08:45:45.323Z,9.15
2022-09-21T08:48:29.087Z,6.72
2022-09-21T08:51:09.406Z,9.02
2022-09-21T08:53:45.040Z,7.03
2022-09-21T08:56:18.916Z,7.03
2022-09-21T08:58:52.461Z,5.65
2022-09-21T09:01:49.041Z,8.40
2022-09-21T09:04:34.683Z,7.00
2022-09-21T09:07:22.489Z,5.35
2022-09-21T09:10:17.788Z,11.55
2022-09-21T09:13:04.407Z,7.13
2022-09-21T09:15:56.801Z,6.07
2022-09-21T09:18:43.439Z,6.03
2022-09-21T09:21:30.408Z,7.60
2022-09-21T09:24:10.971Z,7.50
2022-09-21T09:26:50.851Z,5.97
2022-09-21T09:29:29.976Z,4.97
2022-09-21T09:32:04.970Z,4.60
2022-09-21T09:34:42.432Z,5.85
2022-09-21T09:37:18.794Z,5.18
2022-09-21T09:39:57.933Z,7.78
2022-09-21T09:42:42.509Z,8.35
2022-09-21T09:45:37.480Z,7.85
2022-09-21T09:48:33.611Z,5.13
2022-09-21T09:51:09.364Z,5.07
2022-09-21T09:53:44.310Z,5.60
2022-09-21T09:56:19.634Z,6.30
2022-09-21T09:58:57.741Z,3.55
2022-09-21T10:01:39.360Z,5.78
2022-09-21T10:04:14.746Z,2.90
2022-09-21T10:06:48.205Z,4.25
2022-09-21T10:09:26.715Z,4.82
2022-09-21T10:12:03.934Z,5.25
2022-09-21T10:14:39.511Z,6.07
2022-09-21T10:17:18.758Z,5.95
2022-09-21T10:20:01.132Z,6.63
2022-09-21T10:22:35.874Z,6.78
2022-09-21T10:25:19.319Z,4.63
2022-09-21T10:27:55.794Z,6.68
2022-09-21T10:30:38.745Z,6.43
2022-09-21T10:33:20.797Z,7.97
2022-09-21T10:35:54.773Z,5.20
2022-09-21T10:38:29.232Z,8.30
2022-09-21T10:41:04.134Z,4.05
2022-09-21T10:43:44.013Z,5.07
2022-09-21T10:46:17.703Z,8.32
2022-09-21T10:48:51.423Z,3.78
2022-09-21T10:51:31.721Z,3.47
2022-09-21T10:54:10.415Z,2.30
2022-09-21T10:56:55.101Z,3.05
2022-09-21T10:59:31.116Z,3.65
2022-09-21T11:02:26.678Z,3.33
2022-09-21T11:05:07.932Z,5.10
2022-09-21T11:07:49.053Z,2.97
2022-09-21T11:10:30.854Z,4.15
2022-09-21T11:13:25.202Z,3.60
2022-09-21T11:16:03.765Z,3.58
2022-09-21T11:18:44.990Z,4.20
2022-09-21T11:21:25.251Z,6.28
2022-09-21T11:24:11.214Z,4.30
2022-09-21T11:26:51.766Z,3.90
2022-09-21T11:29:32.612Z,4.50
2022-09-21T11:32:18.552Z,3.50
2022-09-21T11:35:27.112Z,4.22
2022-09-21T11:38:12.997Z,2.95
2022-09-21T11:41:00.768Z,4.72
2022-09-21T11:43:51.995Z,5.45
2022-09-21T11:46:34.618Z,4.60
2022-09-21T11:49:34.404Z,4.65
2022-09-21T11:52:22.812Z,5.03
2022-09-21T11:55:37.025Z,5.25
2022-09-21T11:58:19.520Z,4.00
2022-09-21T12:01:04.844Z,3.78
2022-09-21T12:04:09.298Z,5.78
2022-09-21T12:06:56.435Z,4.70
2022-09-21T12:09:50.536Z,3.33
2022-09-21T12:12:30.974Z,4.38
2022-09-21T12:15:18.634Z,3.25
2022-09-21T12:17:59.860Z,4.63
2022-09-21T12:20:44.505Z,2.80
2022-09-21T12:23:22.634Z,2.95
2022-09-21T12:25:59.449Z,2.67
2022-09-21T12:28:37.631Z,4.93
2022-09-21T12:31:16.441Z,4.15
2022-09-21T12:33:53.256Z,2.45
2022-09-21T12:36:32.426Z,3.20
2022-09-21T12:39:15.028Z,1.75
2022-09-21T12:41:55.633Z,2.13
2022-09-21T12:44:51.976Z,2.13
2022-09-21T12:47:32.963Z,2.00
2022-09-21T12:50:17.423Z,2.10
2022-09-21T12:52:53.740Z,2.30
2022-09-21T12:55:45.579Z,2.83
2022-09-21T12:58:36.151Z,3.20
2022-09-21T13:01:23.112Z,3.17
2022-09-21T13:04:19.054Z,2.22
2022-09-21T13:07:30.115Z,2.40
2022-09-21T13:10:15.686Z,4.20
2022-09-21T13:12:55.210Z,2.45
2022-09-21T13:15:31.548Z,2.30
2022-09-21T13:18:07.447Z,2.88
2022-09-21T13:20:41.945Z,3.10
2022-09-21T13:23:19.421Z,1.63
2022-09-21T13:26:02.013Z,2.88
2022-09-21T13:29:00.464Z,4.50
2022-09-21T13:31:58.968Z,2.70
2022-09-21T13:34:35.227Z,3.60
2022-09-21T13:37:31.119Z,2.70
2022-09-21T13:40:41.536Z,3.15
2022-09-21T13:43:58.662Z,3.75
2022-09-21T13:46:54.815Z,2.55
2022-09-21T13:49:42.189Z,2.22
2022-09-21T13:52:28.700Z,1.67
2022-09-21T13:55:05.616Z,2.90
2022-09-21T13:57:42.917Z,2.42
2022-09-21T14:00:42.101Z,2.28
2022-09-21T14:03:24.622Z,2.65
2022-09-21T14:06:06.658Z,3.10
2022-09-21T14:08:43.295Z,5.40
2022-09-21T14:11:28.507Z,4.63
2022-09-21T14:14:09.450Z,3.53
2022-09-21T14:17:04.567Z,3.65
2022-09-21T14:20:09.513Z,4.20
2022-09-21T14:22:44.849Z,2.50
2022-09-21T14:25:52.208Z,1.70
2022-09-21T14:28:46.660Z,3.05
2022-09-21T14:31:25.824Z,3.85
2022-09-21T14:34:03.089Z,3.05
2022-09-21T14:36:42.572Z,3.90
2022-09-21T14:39:20.181Z,4.97
2022-09-21T14:41:57.622Z,1.73
2022-09-21T14:44:32.923Z,3.47
2022-09-21T14:47:25.459Z,3.58
2022-09-21T14:50:22.573Z,3.05
2022-09-21T14:53:12.648Z,3.47
2022-09-21T14:55:59.560Z,4.50
2022-09-21T14:58:47.564Z,7.15
2022-09-21T15:01:38.538Z,3.90
2022-09-21T15:04:46.185Z,2.85
2022-09-21T15:07:50.307Z,2.88
2022-09-21T15:10:49.706Z,4.18
2022-09-21T15:14:12.577Z,4.85
2022-09-21T15:16:50.388Z,3.47
2022-09-21T15:19:26.241Z,5.10
2022-09-21T15:22:17.341Z,2.50
2022-09-21T15:24:52.991Z,5.80
2022-09-21T15:27:33.505Z,3.00
2022-09-21T15:30:08.333Z,4.47
2022-09-21T15:32:44.047Z,5.35
2022-09-21T15:35:20.233Z,5.22
2022-09-21T15:37:54.094Z,9.32
2022-09-21T15:40:30.166Z,13.32
2022-09-21T15:43:07.388Z,10.00
2022-09-21T15:45:51.853Z,18.35
2022-09-21T15:48:26.491Z,30.10
2022-09-21T15:51:07.551Z,21.35
2022-09-21T15:53:44.998Z,10.10
2022-09-21T15:56:21.118Z,8.20
2022-09-21T15:59:08.922Z,8.02
2022-09-21T16:01:45.539Z,5.72
2022-09-21T16:04:21.968Z,7.85
2022-09-21T16:07:06.980Z,7.10
2022-09-21T16:09:43.718Z,5.72
2022-09-21T16:12:47.666Z,2.22
2022-09-21T16:15:28.683Z,2.90
2022-09-21T16:18:04.952Z,4.90
2022-09-21T16:20:47.424Z,3.25
2022-09-21T16:23:25.539Z,4.20
2022-09-21T16:26:02.216Z,5.50
2022-09-21T16:28:38.363Z,6.05
2022-09-21T16:31:32.103Z,5.13
2022-09-21T16:34:21.682Z,3.80
2022-09-21T16:36:55.244Z,5.00
2022-09-21T16:39:29.254Z,3.15
2022-09-21T16:42:04.664Z,4.75
2022-09-21T16:44:44.836Z,5.45
2022-09-21T16:47:25.468Z,4.55
2022-09-21T16:50:01.565Z,6.90
2022-09-21T16:52:35.165Z,6.10
2022-09-21T16:55:09.494Z,8.15
2022-09-21T16:57:43.754Z,5.63
2022-09-21T17:00:20.268Z,4.38
2022-09-21T17:02:55.243Z,3.13
2022-09-21T17:05:28.732Z,3.88
2022-09-21T17:08:03.179Z,6.18
2022-09-21T17:10:40.721Z,5.45
2022-09-21T17:13:16.308Z,9.52
2022-09-21T17:15:50.583Z,6.95
2022-09-21T17:18:25.800Z,5.10
2022-09-21T17:20:59.923Z,12.95
2022-09-21T17:23:33.617Z,16.33
2022-09-21T17:26:17.750Z,15.85
2022-09-21T17:28:53.479Z,11.85
2022-09-21T17:31:28.257Z,11.57
2022-09-21T17:34:11.851Z,10.73
2022-09-21T17:36:45.551Z,10.02
2022-09-21T17:39:20.187Z,8.35
2022-09-21T17:41:56.819Z,9.30
2022-09-21T17:44:46.934Z,8.77
2022-09-21T17:47:23.597Z,7.82
2022-09-21T17:50:03.665Z,9.75
2022-09-21T17:52:55.252Z,7.93
2022-09-21T17:55:29.760Z,7.05
2022-09-21T17:58:20.735Z,11.75
2022-09-21T18:01:07.521Z,12.23
2022-09-21T18:03:42.675Z,19.27
2022-09-21T18:06:18.613Z,27.25
2022-09-21T18:08:53.869Z,29.35
2022-09-21T18:11:41.628Z,22.60
2022-09-21T18:14:24.538Z,23.00
2022-09-21T18:17:16.923Z,18.42
2022-09-21T18:20:04.239Z,15.13
2022-09-21T18:22:47.978Z,10.73
2022-09-21T18:25:27.641Z,14.18
2022-09-21T18:28:10.418Z,37.28
2022-09-21T18:33:27.298Z,19.38
2022-09-21T18:36:11.006Z,20.40
2022-09-21T18:38:57.489Z,18.92
2022-09-21T18:41:37.544Z,15.20
2022-09-21T18:44:16.184Z,11.02
2022-09-21T18:47:01.595Z,10.55
2022-09-21T18:49:54.498Z,13.45
2022-09-21T18:55:17.661Z,7.88
2022-09-21T18:57:53.435Z,6.72
2022-09-21T19:00:32.501Z,6.57
2022-09-21T19:03:23.881Z,10.20
2022-09-21T19:06:22.295Z,22.80
2022-09-21T19:09:06.620Z,22.95
2022-09-21T19:11:45.655Z,14.15
2022-09-21T19:14:25.471Z,11.27
2022-09-21T19:17:10.852Z,26.85
2022-09-21T19:19:54.824Z,46.47
2022-09-21T19:22:37.422Z,40.20
2022-09-21T19:25:21.577Z,38.60
2022-09-21T19:28:01.708Z,22.15
2022-09-21T19:30:35.708Z,16.45
2022-09-21T19:33:48.396Z,15.30
2022-09-21T19:36:16.274Z,9.60
2022-09-21T19:38:50.548Z,11.13
2022-09-21T19:41:35.197Z,12.73
2022-09-21T19:44:23.170Z,10.05
2022-09-21T19:47:06.769Z,13.63
2022-09-21T19:49:49.455Z,8.73
2022-09-21T19:52:29.880Z,8.48
2022-09-21T19:55:22.286Z,10.85
2022-09-21T19:58:10.619Z,8.80
2022-09-21T20:00:47.287Z,7.97
2022-09-21T20:03:31.275Z,5.53
2022-09-21T20:06:10.071Z,6.32
2022-09-21T20:08:49.029Z,5.35
2022-09-21T20:11:30.486Z,6.22
2022-09-21T20:14:14.309Z,6.82
2022-09-21T20:16:53.210Z,8.32
2022-09-21T20:19:35.424Z,8.00
2022-09-21T20:22:14.700Z,4.13
2022-09-21T20:24:56.792Z,6.13
2022-09-21T20:27:35.199Z,3.30
2022-09-21T20:30:11.914Z,7.22
2022-09-21T20:32:50.872Z,3.90
2022-09-21T20:35:26.240Z,6.32
2022-09-21T20:38:02.749Z,5.28
2022-09-21T20:40:36.992Z,3.42
2022-09-21T20:43:11.340Z,5.30
2022-09-21T20:45:50.451Z,4.82
2022-09-21T20:48:25.555Z,5.43
2022-09-21T20:51:00.350Z,5.13
2022-09-21T20:53:34.050Z,2.83
2022-09-21T20:56:07.636Z,6.47
2022-09-21T20:58:41.158Z,12.88
2022-09-21T21:01:14.778Z,4.82
2022-09-21T21:03:49.745Z,11.68
2022-09-21T21:06:23.277Z,10.20
2022-09-21T21:08:56.838Z,3.47
2022-09-21T21:11:30.483Z,3.17
2022-09-21T21:14:04.910Z,5.88
2022-09-21T21:16:38.475Z,4.85
2022-09-21T21:19:13.578Z,4.70
2022-09-21T21:21:47.045Z,8.68
2022-09-21T21:24:37.902Z,6.43
2022-09-21T21:27:16.367Z,22.98
2022-09-21T21:29:51.894Z,7.75
2022-09-21T21:32:27.443Z,4.80
2022-09-21T21:35:02.839Z,6.50
2022-09-21T21:37:37.249Z,8.00
2022-09-21T21:40:11.920Z,7.65
2022-09-21T21:42:45.429Z,4.45
2022-09-21T21:45:21.524Z,7.65
2022-09-21T21:47:56.098Z,4.88
2022-09-21T21:50:31.628Z,5.15
2022-09-21T21:53:05.201Z,8.18
2022-09-21T21:55:39.016Z,7.68
2022-09-21T21:58:13.058Z,3.88
2022-09-21T22:00:47.340Z,5.22
2022-09-21T22:03:20.870Z,3.33
2022-09-21T22:05:58.160Z,3.88
2022-09-21T22:08:32.482Z,3.10
2022-09-21T22:11:07.097Z,4.30
2022-09-21T22:13:41.453Z,3.97
2022-09-21T22:16:17.406Z,4.43
2022-09-21T22:18:52.214Z,4.32
2022-09-21T22:21:28.678Z,4.95
2022-09-21T22:24:04.407Z,4.95
2022-09-21T22:26:40.430Z,4.32
2022-09-21T22:29:15.231Z,8.48
2022-09-21T22:31:50.433Z,7.80
2022-09-21T22:34:23.990Z,8.70
2022-09-21T22:37:00.653Z,13.82
2022-09-21T22:39:34.219Z,8.75
2022-09-21T22:42:07.843Z,7.90
2022-09-21T22:44:41.344Z,6.55
2022-09-21T22:47:14.925Z,8.75
2022-09-21T22:49:48.477Z,5.43
2022-09-21T22:52:23.473Z,7.05
2022-09-21T22:54:57.126Z,5.80
2022-09-21T22:57:30.594Z,5.47
2022-09-21T23:00:05.178Z,6.25
2022-09-21T23:02:38.688Z,6.07
2022-09-21T23:05:12.151Z,3.63
2022-09-21T23:07:50.884Z,5.35
2022-09-21T23:10:26.259Z,4.63
2022-09-21T23:12:59.803Z,2.95
2022-09-21T23:15:33.219Z,8.15
2022-09-21T23:18:06.808Z,5.80
2022-09-21T23:20:40.252Z,2.72
2022-09-21T23:23:15.420Z,3.50
2022-09-21T23:25:48.952Z,3.60
2022-09-21T23:28:22.517Z,3.50
2022-09-21T23:30:58.047Z,4.90
2022-09-21T23:33:33.278Z,4.43
2022-09-21T23:36:09.233Z,5.80
2022-09-21T23:38:45.148Z,5.13
2022-09-21T23:41:20.702Z,3.33
2022-09-21T23:43:54.816Z,3.67
2022-09-21T23:46:30.646Z,10.98
2022-09-21T23:49:04.862Z,3.85
2022-09-21T23:51:38.924Z,3.78
2022-09-21T23:54:15.178Z,2.13
2022-09-21T23:56:48.789Z,3.20
2022-09-21T23:59:22.278Z,7.43
